Time;durP1;ratioP1;P1;durP2;ratioP2;P2;SDS_P1;SDS_P2;PMS_P1;PMS_P2;Temp;Humidity;BMP_temperature;BMP_pressure;BME280_temperature;BME280_humidity;BME280_pressure;Samples;Min_cycle;Max_cycle;Signal;HPM_P1;HPM_P2
2022/02/13 00:03:12;;;;;;;;;;;2.10;99.90;;;;;;8406364;28;20411;-75
2022/02/13 00:07:14;;;;;;;;;;;2.10;99.90;;;;;;8406004;28;19932;-75
2022/02/13 00:11:16;;;;;;;;;;;2.00;99.90;;;;;;8404929;28;19947;-75
2022/02/13 00:15:18;;;;;;;;;;;2.00;99.90;;;;;;8409328;28;19950;-75
2022/02/13 00:19:20;;;;;;;;;;;2.00;99.90;;;;;;8405242;28;20023;-75
2022/02/13 00:23:24;;;;;;;;;;;1.90;99.90;;;;;;8390252;28;19932;-75
2022/02/13 00:27:27;;;;;;;;;;;1.90;99.90;;;;;;8405968;28;19925;-75
2022/02/13 00:31:28;;;;;;;;;;;1.90;99.90;;;;;;8407381;28;19979;-76
2022/02/13 00:35:31;;;;;;;;;;;1.90;99.90;;;;;;8405719;28;20050;-75
2022/02/13 00:39:32;;;;;;;;;;;1.90;99.90;;;;;;8392163;28;20042;-75
2022/02/13 00:43:34;;;;;;;;;;;1.80;99.90;;;;;;8417399;28;20366;-75
2022/02/13 00:47:36;;;;;;;;;;;1.80;99.90;;;;;;8385460;28;20344;-75
2022/02/13 00:51:37;;;;;;;;;;;1.80;99.90;;;;;;8387132;28;19932;-75
2022/02/13 00:55:39;;;;;;;;;;;1.80;99.90;;;;;;8404895;28;19975;-75
2022/02/13 00:59:41;;;;;;;;;;;1.80;99.90;;;;;;8406906;28;20011;-75
2022/02/13 01:03:42;;;;;;;;;;;1.80;99.90;;;;;;8400333;28;19946;-75
2022/02/13 01:07:44;;;;;;;;;;;1.70;99.90;;;;;;8402911;28;19978;-75
2022/02/13 01:11:46;;;;;;;;;;;1.70;99.90;;;;;;8402394;28;20012;-75
2022/02/13 01:15:47;;;;;;;;;;;1.70;99.90;;;;;;8387899;28;20019;-75
2022/02/13 01:19:49;;;;;;;;;;;1.70;99.90;;;;;;8388478;28;20398;-75
2022/02/13 01:23:51;;;;;;;;;;;1.70;99.90;;;;;;8409295;28;19996;-74
2022/02/13 01:27:52;;;;;;;;;;;1.70;99.90;;;;;;8409636;28;20396;-75
2022/02/13 01:31:55;;;;;;;;;;;1.70;99.90;;;;;;8388454;28;19998;-75
2022/02/13 01:35:58;;;;;;;;;;;1.70;99.90;;;;;;8399997;28;19929;-75
2022/02/13 01:40:00;;;;;;;;;;;1.70;99.90;;;;;;8408622;28;20386;-75
2022/02/13 01:44:01;;;;;;;;;;;1.70;99.90;;;;;;8406895;28;19932;-75
2022/02/13 01:48:08;;;;;;;;;;;1.70;99.90;;;;;;8404441;28;19924;-75
2022/02/13 01:52:10;;;;;;;;;;;1.80;99.90;;;;;;8410224;28;20276;-75
2022/02/13 01:56:12;;;;;;;;;;;1.80;99.90;;;;;;8384431;28;19975;-75
2022/02/13 02:00:14;;;;;;;;;;;1.80;99.90;;;;;;8404258;28;19978;-75
2022/02/13 02:04:16;;;;;;;;;;;1.80;99.90;;;;;;8391198;28;20047;-75
2022/02/13 02:08:18;;;;;;;;;;;1.80;99.90;;;;;;8391999;28;19932;-75
2022/02/13 02:12:19;;;;;;;;;;;1.80;99.90;;;;;;8393460;28;19928;-75
2022/02/13 02:16:21;;;;;;;;;;;1.80;99.90;;;;;;8396412;28;19928;-75
2022/02/13 02:20:23;;;;;;;;;;;1.80;99.90;;;;;;8405020;28;19975;-75
2022/02/13 02:24:24;;;;;;;;;;;1.80;99.90;;;;;;8386536;28;19932;-75
2022/02/13 02:28:26;;;;;;;;;;;1.80;99.90;;;;;;8407649;28;19928;-75
2022/02/13 02:32:28;;;;;;;;;;;1.80;99.90;;;;;;8403508;28;20316;-76
2022/02/13 02:36:29;;;;;;;;;;;1.70;99.90;;;;;;8400366;28;19931;-75
2022/02/13 02:40:31;;;;;;;;;;;1.70;99.90;;;;;;8413531;28;19967;-75
2022/02/13 02:44:33;;;;;;;;;;;1.70;99.90;;;;;;8409682;28;19936;-75
2022/02/13 02:48:34;;;;;;;;;;;1.70;99.90;;;;;;8406268;28;19979;-75
2022/02/13 02:52:36;;;;;;;;;;;1.60;99.90;;;;;;8417595;28;19928;-75
2022/02/13 02:56:37;;;;;;;;;;;1.60;99.90;;;;;;8411015;28;20383;-75
2022/02/13 03:00:39;;;;;;;;;;;1.60;99.90;;;;;;8408608;28;19924;-75
2022/02/13 03:04:41;;;;;;;;;;;1.60;99.90;;;;;;8407762;28;19971;-75
2022/02/13 03:08:42;;;;;;;;;;;1.60;99.90;;;;;;8401730;28;19924;-75
2022/02/13 03:12:44;;;;;;;;;;;1.60;99.90;;;;;;8413644;28;20019;-75
2022/02/13 03:16:45;;;;;;;;;;;1.60;99.90;;;;;;8403170;28;19982;-75
2022/02/13 03:20:48;;;;;;;;;;;1.60;99.90;;;;;;8393016;28;19967;-75
2022/02/13 03:24:49;;;;;;;;;;;1.50;99.90;;;;;;8412880;28;20356;-75
2022/02/13 03:28:51;;;;;;;;;;;1.50;99.90;;;;;;8414397;28;19979;-74
2022/02/13 03:32:55;;;;;;;;;;;1.50;99.90;;;;;;8414926;28;19924;-75
2022/02/13 03:36:57;;;;;;;;;;;1.50;99.90;;;;;;8394337;28;19924;-75
2022/02/13 03:40:58;;;;;;;;;;;1.50;99.90;;;;;;8419312;28;20342;-75
2022/02/13 03:45:00;;;;;;;;;;;1.50;99.90;;;;;;8416051;28;19991;-75
2022/02/13 03:49:02;;;;;;;;;;;1.40;99.90;;;;;;8410389;28;19967;-75
2022/02/13 03:53:04;;;;;;;;;;;1.40;99.90;;;;;;8403136;28;19924;-75
2022/02/13 03:57:06;;;;;;;;;;;1.40;99.90;;;;;;8404266;28;19971;-75
2022/02/13 04:01:07;;;;;;;;;;;1.40;99.90;;;;;;8415525;28;19965;-75
2022/02/13 04:05:09;;;;;;;;;;;1.40;99.90;;;;;;8391094;28;20392;-75
2022/02/13 04:09:11;;;;;;;;;;;1.40;99.90;;;;;;8419099;28;19932;-75
2022/02/13 04:13:13;;;;;;;;;;;1.40;99.90;;;;;;8389562;28;20011;-75
2022/02/13 04:17:14;;;;;;;;;;;1.40;99.90;;;;;;8413902;28;19928;-75
2022/02/13 04:21:16;;;;;;;;;;;1.40;99.90;;;;;;8414440;28;19968;-75
2022/02/13 04:25:17;;;;;;;;;;;1.40;99.90;;;;;;8386824;28;20071;-75
2022/02/13 04:29:20;;;;;;;;;;;1.40;99.90;;;;;;8411883;28;20024;-75
2022/02/13 04:33:22;;;;;;;;;;;1.40;99.90;;;;;;8412338;28;19968;-75
2022/02/13 04:37:23;;;;;;;;;;;1.30;99.90;;;;;;8384730;28;20925;-75
2022/02/13 04:41:25;;;;;;;;;;;1.30;99.90;;;;;;8395352;28;19978;-75
2022/02/13 04:45:27;;;;;;;;;;;1.30;99.90;;;;;;8409773;28;20270;-75
2022/02/13 04:49:28;;;;;;;;;;;1.30;99.90;;;;;;8408523;28;19971;-75
2022/02/13 04:53:30;;;;;;;;;;;1.30;99.90;;;;;;8407030;28;19972;-75
2022/02/13 04:57:31;;;;;;;;;;;1.30;99.90;;;;;;8402863;28;20382;-75
2022/02/13 05:01:33;;;;;;;;;;;1.30;99.90;;;;;;8409589;28;19961;-75
2022/02/13 05:05:35;;;;;;;;;;;1.30;99.90;;;;;;8408473;28;19955;-75
2022/02/13 05:09:37;;;;;;;;;;;1.20;99.90;;;;;;8416668;28;19962;-75
2022/02/13 05:13:39;;;;;;;;;;;1.20;99.90;;;;;;8401654;28;19982;-75
2022/02/13 05:17:40;;;;;;;;;;;1.20;99.90;;;;;;8399022;28;19952;-75
2022/02/13 05:21:42;;;;;;;;;;;1.20;99.90;;;;;;8400122;28;19974;-75
2022/02/13 05:25:44;;;;;;;;;;;1.20;99.90;;;;;;8407974;28;19927;-75
2022/02/13 05:29:45;;;;;;;;;;;1.20;99.90;;;;;;8410550;28;19978;-75
2022/02/13 05:33:47;;;;;;;;;;;1.30;99.90;;;;;;8392887;28;19931;-75
2022/02/13 05:37:50;;;;;;;;;;;1.30;99.90;;;;;;8411700;28;21194;-75
2022/02/13 05:41:52;;;;;;;;;;;1.30;99.90;;;;;;8400756;28;19978;-75
2022/02/13 05:45:55;;;;;;;;;;;1.30;99.90;;;;;;8414158;28;19959;-75
2022/02/13 05:49:56;;;;;;;;;;;1.30;99.90;;;;;;8409144;28;19932;-75
2022/02/13 05:53:58;;;;;;;;;;;1.30;99.90;;;;;;8410273;28;19974;-75
2022/02/13 05:57:59;;;;;;;;;;;1.30;99.90;;;;;;8407643;28;20352;-75
2022/02/13 06:02:01;;;;;;;;;;;1.30;99.90;;;;;;8384486;28;19983;-75
2022/02/13 06:06:03;;;;;;;;;;;1.30;99.90;;;;;;8398713;28;20398;-75
2022/02/13 06:10:05;;;;;;;;;;;1.30;99.90;;;;;;8405019;28;19924;-75
2022/02/13 06:14:07;;;;;;;;;;;1.30;99.90;;;;;;8389566;28;19932;-75
2022/02/13 06:18:09;;;;;;;;;;;1.30;99.90;;;;;;8413362;28;19974;-75
2022/02/13 06:22:10;;;;;;;;;;;1.30;99.90;;;;;;8407180;28;19983;-75
2022/02/13 06:26:13;;;;;;;;;;;1.30;99.90;;;;;;8401017;28;20025;-75
2022/02/13 06:30:14;;;;;;;;;;;1.30;99.90;;;;;;8395400;28;19939;-75
2022/02/13 06:34:16;;;;;;;;;;;1.30;99.90;;;;;;8384313;28;19924;-75
2022/02/13 06:38:17;;;;;;;;;;;1.30;99.90;;;;;;8398671;28;20275;-75
2022/02/13 06:42:19;;;;;;;;;;;1.40;99.90;;;;;;8404493;28;19931;-75
2022/02/13 06:46:20;;;;;;;;;;;1.40;99.90;;;;;;8406251;28;19959;-75
2022/02/13 06:50:22;;;;;;;;;;;1.50;99.90;;;;;;8408715;28;19983;-75
2022/02/13 06:54:24;;;;;;;;;;;1.50;99.90;;;;;;8404419;28;20008;-75
2022/02/13 06:58:26;;;;;;;;;;;1.60;99.90;;;;;;8391082;28;20368;-75
2022/02/13 07:02:27;;;;;;;;;;;1.60;99.90;;;;;;8402646;28;19978;-75
2022/02/13 07:06:29;;;;;;;;;;;1.60;99.90;;;;;;8382080;28;20018;-75
2022/02/13 07:10:30;;;;;;;;;;;1.60;99.90;;;;;;8409212;28;19924;-75
2022/02/13 07:14:32;;;;;;;;;;;1.70;99.90;;;;;;8411412;28;20280;-75
2022/02/13 07:18:34;;;;;;;;;;;1.80;99.90;;;;;;8415164;28;19963;-75
2022/02/13 07:22:35;;;;;;;;;;;1.80;99.90;;;;;;8402717;28;19968;-74
2022/02/13 07:26:37;;;;;;;;;;;1.90;99.90;;;;;;8419993;28;20383;-75
2022/02/13 07:30:39;;;;;;;;;;;1.90;99.90;;;;;;8395743;28;20003;-75
2022/02/13 07:34:40;;;;;;;;;;;2.00;99.90;;;;;;8398389;28;19924;-75
2022/02/13 07:38:46;;;;;;;;;;;2.00;99.90;;;;;;8412992;28;19932;-75
2022/02/13 07:42:47;;;;;;;;;;;2.00;99.90;;;;;;8414110;28;20446;-75
2022/02/13 07:46:49;;;;;;;;;;;2.10;99.90;;;;;;8411186;28;20003;-75
2022/02/13 07:50:50;;;;;;;;;;;2.10;99.90;;;;;;8407227;28;19972;-75
2022/02/13 07:54:52;;;;;;;;;;;2.10;99.90;;;;;;8413133;28;19925;-75
2022/02/13 07:58:53;;;;;;;;;;;2.20;99.90;;;;;;8410572;28;20038;-75
2022/02/13 08:02:55;;;;;;;;;;;2.20;99.90;;;;;;8403282;28;19956;-75
2022/02/13 08:06:57;;;;;;;;;;;2.20;99.90;;;;;;8395327;28;19972;-75
2022/02/13 08:10:58;;;;;;;;;;;2.30;99.90;;;;;;8388128;28;19975;-75
2022/02/13 08:15:00;;;;;;;;;;;2.30;99.90;;;;;;8403230;28;20011;-75
2022/02/13 08:19:01;;;;;;;;;;;2.40;99.90;;;;;;8401583;28;20382;-75
2022/02/13 08:23:03;;;;;;;;;;;2.40;99.90;;;;;;8402779;28;19924;-75
2022/02/13 08:27:06;;;;;;;;;;;2.50;99.90;;;;;;8405936;28;19925;-75
2022/02/13 08:31:08;;;;;;;;;;;2.60;99.90;;;;;;8404249;28;19924;-75
2022/02/13 08:35:09;;;;;;;;;;;2.60;99.90;;;;;;8408839;28;20045;-75
2022/02/13 08:39:11;;;;;;;;;;;2.70;99.90;;;;;;8402021;28;20011;-75
2022/02/13 08:43:13;;;;;;;;;;;2.90;99.90;;;;;;8386518;28;19963;-75
2022/02/13 08:47:14;;;;;;;;;;;2.90;99.90;;;;;;8407945;28;20399;-75
2022/02/13 08:51:16;;;;;;;;;;;3.00;99.90;;;;;;8394715;28;19970;-75
2022/02/13 08:55:18;;;;;;;;;;;3.10;99.90;;;;;;8400125;28;20376;-75
2022/02/13 08:59:20;;;;;;;;;;;3.10;99.90;;;;;;8404600;28;19971;-75
2022/02/13 09:03:21;;;;;;;;;;;3.20;99.90;;;;;;8391212;28;19971;-75
2022/02/13 09:07:23;;;;;;;;;;;3.20;99.90;;;;;;8407719;28;20380;-75
2022/02/13 09:11:24;;;;;;;;;;;3.40;99.90;;;;;;8391984;28;19960;-75
2022/02/13 09:15:28;;;;;;;;;;;3.50;99.90;;;;;;8409716;28;20007;-75
2022/02/13 09:19:30;;;;;;;;;;;3.60;99.90;;;;;;8410959;28;19924;-75
2022/02/13 09:23:31;;;;;;;;;;;3.70;99.90;;;;;;8409698;28;20011;-75
2022/02/13 09:27:33;;;;;;;;;;;3.80;99.90;;;;;;8405847;28;19943;-75
2022/02/13 09:31:35;;;;;;;;;;;3.90;99.90;;;;;;8406941;28;19963;-75
2022/02/13 09:35:36;;;;;;;;;;;4.10;99.90;;;;;;8408900;28;20123;-75
2022/02/13 09:39:38;;;;;;;;;;;4.40;99.90;;;;;;8414196;28;19979;-75
2022/02/13 09:43:40;;;;;;;;;;;4.70;99.90;;;;;;8415332;28;19996;-75
2022/02/13 09:47:42;;;;;;;;;;;4.90;99.90;;;;;;8409642;28;19932;-75
2022/02/13 09:51:44;;;;;;;;;;;5.10;99.90;;;;;;8403997;28;19939;-75
2022/02/13 09:55:45;;;;;;;;;;;5.30;99.90;;;;;;8400872;28;20020;-75
2022/02/13 09:59:54;;;;;;;;;;;5.50;99.90;;;;;;8413046;28;19991;-75
2022/02/13 10:03:55;;;;;;;;;;;5.70;99.90;;;;;;8387232;28;19924;-75
2022/02/13 10:07:57;;;;;;;;;;;5.80;99.90;;;;;;8404883;28;20533;-75
2022/02/13 10:12:02;;;;;;;;;;;5.90;99.90;;;;;;8403409;28;19928;-75
2022/02/13 10:16:10;;;;;;;;;;;5.90;99.90;;;;;;8408006;28;20020;-75
2022/02/13 10:20:12;;;;;;;;;;;6.10;99.90;;;;;;8383798;28;19964;-75
2022/02/13 10:24:13;;;;;;;;;;;6.10;99.90;;;;;;8407864;28;20371;-75
2022/02/13 10:28:16;;;;;;;;;;;6.30;99.90;;;;;;8400895;28;19924;-75
2022/02/13 10:32:22;;;;;;;;;;;6.50;99.90;;;;;;8400968;28;19967;-75
2022/02/13 10:36:23;;;;;;;;;;;6.70;99.90;;;;;;8413215;28;19978;-75
2022/02/13 10:40:29;;;;;;;;;;;6.90;99.90;;;;;;8383841;28;19928;-75
2022/02/13 10:44:31;;;;;;;;;;;7.20;99.90;;;;;;8404398;28;19983;-75
2022/02/13 10:48:32;;;;;;;;;;;7.30;99.90;;;;;;8412020;28;20337;-75
2022/02/13 10:52:35;;;;;;;;;;;7.50;99.90;;;;;;8403284;28;20419;-75
2022/02/13 10:56:37;;;;;;;;;;;7.70;99.90;;;;;;8409404;28;19932;-75
2022/02/13 11:00:39;;;;;;;;;;;7.90;99.90;;;;;;8406851;28;19924;-75
2022/02/13 11:04:41;;;;;;;;;;;8.10;99.90;;;;;;8401876;28;19931;-75
2022/02/13 11:09:03;;;;;;;;;;;8.40;99.90;;;;;;8408838;28;19924;-75
2022/02/13 11:13:17;;;;;;;;;;;8.50;99.90;;;;;;8403738;28;19932;-75
2022/02/13 11:17:32;;;;;;;;;;;8.50;99.90;;;;;;8405482;28;19947;-75
2022/02/13 11:21:34;;;;;;;;;;;8.80;99.90;;;;;;8415652;28;19968;-75
2022/02/13 11:25:52;;;;;;;;;;;9.20;99.90;;;;;;8406476;28;20002;-75
2022/02/13 11:30:01;;;;;;;;;;;9.30;99.90;;;;;;8414119;28;19932;-75
2022/02/13 11:34:03;;;;;;;;;;;9.40;99.90;;;;;;8411688;28;20368;-75
2022/02/13 11:38:04;;;;;;;;;;;9.50;99.90;;;;;;8406398;28;20023;-75
2022/02/13 11:42:10;;;;;;;;;;;9.60;99.90;;;;;;8406327;28;20006;-75
2022/02/13 11:46:12;;;;;;;;;;;9.60;99.90;;;;;;8409156;28;19932;-75
2022/02/13 11:50:16;;;;;;;;;;;9.70;99.90;;;;;;8384734;28;20355;-75
2022/02/13 11:54:37;;;;;;;;;;;10.10;99.90;;;;;;8408409;28;19924;-75
2022/02/13 11:58:41;;;;;;;;;;;10.40;99.90;;;;;;8405676;28;19978;-75
2022/02/13 12:02:47;;;;;;;;;;;10.60;99.90;;;;;;8388649;28;21216;-75
2022/02/13 12:06:53;;;;;;;;;;;10.70;99.90;;;;;;8408441;28;19960;-75
2022/02/13 12:11:00;;;;;;;;;;;10.70;99.90;;;;;;8409982;28;19932;-75
2022/02/13 12:15:02;;;;;;;;;;;10.50;99.90;;;;;;8392461;28;19932;-75
2022/02/13 12:19:03;;;;;;;;;;;10.40;99.90;;;;;;8388749;28;19962;-75
2022/02/13 12:23:06;;;;;;;;;;;10.00;99.90;;;;;;8416245;28;19924;-75
2022/02/13 12:27:09;;;;;;;;;;;9.70;99.90;;;;;;8418834;28;19928;-75
2022/02/13 12:31:11;;;;;;;;;;;9.70;99.90;;;;;;8413360;28;19983;-75
2022/02/13 12:35:13;;;;;;;;;;;9.80;99.90;;;;;;8412551;28;19924;-74
2022/02/13 12:39:15;;;;;;;;;;;10.10;99.90;;;;;;8396263;28;19924;-75
2022/02/13 12:43:18;;;;;;;;;;;10.30;99.90;;;;;;8397409;28;20096;-75
2022/02/13 12:47:27;;;;;;;;;;;10.30;99.90;;;;;;8414451;28;19971;-75
2022/02/13 12:51:28;;;;;;;;;;;10.40;99.90;;;;;;8404156;28;19932;-75
2022/02/13 12:55:31;;;;;;;;;;;10.50;99.90;;;;;;8404327;28;19978;-75
2022/02/13 12:59:32;;;;;;;;;;;10.60;99.90;;;;;;8405302;28;19974;-75
2022/02/13 13:03:34;;;;;;;;;;;10.80;99.90;;;;;;8399728;28;20372;-75
2022/02/13 13:07:36;;;;;;;;;;;10.80;99.90;;;;;;8410040;28;19925;-75
2022/02/13 13:11:40;;;;;;;;;;;10.70;99.90;;;;;;8409408;28;19928;-75
2022/02/13 13:15:54;;;;;;;;;;;10.50;99.90;;;;;;8407280;28;20311;-75
2022/02/13 13:19:55;;;;;;;;;;;10.50;99.90;;;;;;8404146;28;20037;-75
2022/02/13 13:23:57;;;;;;;;;;;10.30;99.90;;;;;;8388051;28;19964;-75
2022/02/13 13:28:08;;;;;;;;;;;10.30;99.90;;;;;;8383071;28;19924;-75
2022/02/13 13:32:15;;;;;;;;;;;10.20;99.90;;;;;;8406565;28;19939;-76
2022/02/13 13:36:27;;;;;;;;;;;10.20;99.90;;;;;;8406881;28;20280;-75
2022/02/13 13:40:29;;;;;;;;;;;10.10;99.90;;;;;;8401259;28;19982;-75
2022/02/13 13:44:31;;;;;;;;;;;10.10;99.90;;;;;;8400690;28;20272;-75
2022/02/13 13:48:32;;;;;;;;;;;10.10;99.90;;;;;;8385446;28;19924;-76
2022/02/13 13:52:34;;;;;;;;;;;10.10;99.90;;;;;;8404704;28;19971;-75
2022/02/13 13:56:36;;;;;;;;;;;10.00;99.90;;;;;;8411210;28;19928;-76
2022/02/13 14:00:37;;;;;;;;;;;9.90;99.90;;;;;;8407826;28;20015;-76
2022/02/13 14:04:39;;;;;;;;;;;9.90;99.90;;;;;;8407685;28;19932;-75
2022/02/13 14:08:41;;;;;;;;;;;9.90;99.90;;;;;;8401316;28;20274;-75
2022/02/13 14:12:42;;;;;;;;;;;9.90;99.90;;;;;;8387515;28;19939;-75
2022/02/13 14:16:44;;;;;;;;;;;10.00;99.90;;;;;;8404362;28;19932;-75
2022/02/13 14:20:46;;;;;;;;;;;10.00;99.90;;;;;;8402890;28;19924;-75
2022/02/13 14:24:47;;;;;;;;;;;10.10;99.90;;;;;;8401623;28;20359;-75
2022/02/13 14:28:50;;;;;;;;;;;10.30;99.90;;;;;;8410407;28;20364;-75
2022/02/13 14:32:52;;;;;;;;;;;10.30;99.90;;;;;;8397290;28;19924;-75
2022/02/13 14:36:55;;;;;;;;;;;10.40;99.90;;;;;;8415501;28;19971;-75
2022/02/13 14:40:56;;;;;;;;;;;10.50;99.90;;;;;;8406594;28;19971;-75
2022/02/13 14:44:58;;;;;;;;;;;10.50;99.90;;;;;;8411878;28;20020;-75
2022/02/13 14:49:00;;;;;;;;;;;10.40;99.90;;;;;;8415374;28;20418;-76
2022/02/13 14:53:02;;;;;;;;;;;10.50;99.90;;;;;;8400972;28;19967;-75
2022/02/13 14:57:04;;;;;;;;;;;10.40;99.90;;;;;;8414742;28;19975;-75
2022/02/13 15:01:05;;;;;;;;;;;10.40;99.90;;;;;;8399763;28;19967;-76
2022/02/13 15:05:07;;;;;;;;;;;10.40;99.90;;;;;;8413037;28;19929;-76
2022/02/13 15:09:09;;;;;;;;;;;10.40;99.90;;;;;;8387011;28;20401;-76
2022/02/13 15:13:12;;;;;;;;;;;10.40;99.90;;;;;;8409556;28;19975;-76
2022/02/13 15:17:22;;;;;;;;;;;10.50;99.90;;;;;;8400489;28;19926;-76
2022/02/13 15:21:23;;;;;;;;;;;10.60;99.90;;;;;;8411194;28;19924;-76
2022/02/13 15:25:25;;;;;;;;;;;10.40;99.90;;;;;;8400272;28;19982;-75
2022/02/13 15:29:27;;;;;;;;;;;10.40;99.90;;;;;;8404577;28;20059;-75
2022/02/13 15:33:29;;;;;;;;;;;10.40;99.90;;;;;;8405764;28;19928;-76
2022/02/13 15:37:30;;;;;;;;;;;10.30;99.90;;;;;;8402673;28;19924;-76
2022/02/13 15:41:32;;;;;;;;;;;10.30;99.90;;;;;;8402240;28;19959;-76
2022/02/13 15:45:33;;;;;;;;;;;10.30;99.90;;;;;;8392494;28;19939;-76
2022/02/13 15:49:35;;;;;;;;;;;10.20;99.90;;;;;;8386229;28;20407;-76
2022/02/13 15:53:37;;;;;;;;;;;10.10;99.90;;;;;;8409615;28;20357;-76
2022/02/13 15:57:38;;;;;;;;;;;10.10;99.90;;;;;;8388901;28;20015;-76
2022/02/13 16:01:40;;;;;;;;;;;10.00;99.90;;;;;;8397000;28;19975;-76
2022/02/13 16:05:41;;;;;;;;;;;10.00;99.90;;;;;;8395427;28;20232;-76
2022/02/13 16:09:45;;;;;;;;;;;10.00;99.90;;;;;;8402230;28;20380;-76
2022/02/13 16:13:48;;;;;;;;;;;10.00;99.90;;;;;;8392901;28;19924;-76
2022/02/13 16:17:50;;;;;;;;;;;9.90;99.90;;;;;;8404128;28;19968;-76
2022/02/13 16:21:51;;;;;;;;;;;9.90;99.90;;;;;;8383746;28;19936;-76
2022/02/13 16:25:53;;;;;;;;;;;9.90;99.90;;;;;;8389794;28;20007;-76
2022/02/13 16:29:54;;;;;;;;;;;9.90;99.90;;;;;;8393412;28;20007;-76
2022/02/13 16:33:56;;;;;;;;;;;9.80;99.90;;;;;;8397243;28;19975;-76
2022/02/13 16:37:58;;;;;;;;;;;9.80;99.90;;;;;;8396184;28;19971;-76
2022/02/13 16:42:02;;;;;;;;;;;9.80;99.90;;;;;;8377363;28;19986;-76
2022/02/13 16:46:03;;;;;;;;;;;9.80;99.90;;;;;;8396143;28;19936;-76
2022/02/13 16:50:05;;;;;;;;;;;9.80;99.90;;;;;;8392527;28;20279;-76
2022/02/13 16:54:07;;;;;;;;;;;9.70;99.90;;;;;;8395249;28;19971;-76
2022/02/13 16:58:08;;;;;;;;;;;9.70;99.90;;;;;;8373174;28;19979;-76
2022/02/13 17:02:10;;;;;;;;;;;9.70;99.90;;;;;;8374915;28;19928;-76
2022/02/13 17:06:12;;;;;;;;;;;9.70;99.90;;;;;;8388976;28;19966;-76
2022/02/13 17:10:13;;;;;;;;;;;9.60;99.90;;;;;;8392176;28;19932;-76
2022/02/13 17:14:15;;;;;;;;;;;9.60;99.90;;;;;;8397495;28;19969;-76
2022/02/13 17:18:17;;;;;;;;;;;9.60;99.90;;;;;;8393287;28;19928;-76
2022/02/13 17:22:19;;;;;;;;;;;9.50;99.90;;;;;;8396215;28;19929;-76
2022/02/13 17:26:21;;;;;;;;;;;9.50;99.90;;;;;;8394218;28;19960;-76
2022/02/13 17:30:23;;;;;;;;;;;9.40;99.90;;;;;;8398138;28;20409;-76
2022/02/13 17:34:25;;;;;;;;;;;9.40;99.90;;;;;;8378667;28;20052;-76
2022/02/13 17:38:27;;;;;;;;;;;9.40;99.90;;;;;;8395331;28;20394;-76
2022/02/13 17:42:28;;;;;;;;;;;9.40;99.90;;;;;;8400780;28;20027;-76
2022/02/13 17:46:33;;;;;;;;;;;9.40;99.90;;;;;;8400631;28;20360;-76
2022/02/13 17:50:35;;;;;;;;;;;9.40;99.90;;;;;;8382329;28;19931;-76
2022/02/13 17:54:37;;;;;;;;;;;9.40;99.90;;;;;;8389471;28;19975;-76
2022/02/13 17:58:38;;;;;;;;;;;9.40;99.90;;;;;;8372263;28;19925;-76
2022/02/13 18:02:40;;;;;;;;;;;9.40;99.90;;;;;;8375021;28;20027;-76
2022/02/13 18:06:41;;;;;;;;;;;9.40;99.90;;;;;;8392734;28;20313;-76
2022/02/13 18:10:44;;;;;;;;;;;9.40;99.90;;;;;;8375691;28;19975;-76
2022/02/13 18:14:46;;;;;;;;;;;9.40;99.90;;;;;;8394269;28;20011;-76
2022/02/13 18:18:47;;;;;;;;;;;9.40;99.90;;;;;;8395332;28;20341;-76
2022/02/13 18:22:50;;;;;;;;;;;9.40;99.90;;;;;;8381477;28;20051;-76
2022/02/13 18:26:51;;;;;;;;;;;9.40;99.90;;;;;;8391590;28;20562;-76
2022/02/13 18:30:53;;;;;;;;;;;9.40;99.90;;;;;;8392048;28;20276;-76
2022/02/13 18:34:55;;;;;;;;;;;9.40;99.90;;;;;;8401883;28;19932;-75
2022/02/13 18:38:57;;;;;;;;;;;9.40;99.90;;;;;;8404111;28;19931;-75
2022/02/13 18:42:59;;;;;;;;;;;9.40;99.90;;;;;;8404250;28;20015;-76
2022/02/13 18:47:01;;;;;;;;;;;9.40;99.90;;;;;;8398968;28;19956;-76
2022/02/13 18:51:04;;;;;;;;;;;9.40;99.90;;;;;;8393621;28;19935;-76
2022/02/13 18:55:07;;;;;;;;;;;9.40;99.90;;;;;;8389014;28;20026;-76
2022/02/13 18:59:08;;;;;;;;;;;9.40;99.90;;;;;;8388306;28;19956;-76
2022/02/13 19:03:10;;;;;;;;;;;9.40;99.90;;;;;;8394999;28;19924;-76
2022/02/13 19:07:12;;;;;;;;;;;9.40;99.90;;;;;;8374735;28;20027;-76
2022/02/13 19:11:13;;;;;;;;;;;9.50;99.90;;;;;;8388847;28;20730;-76
2022/02/13 19:15:15;;;;;;;;;;;9.40;99.90;;;;;;8396056;28;20003;-76
2022/02/13 19:19:17;;;;;;;;;;;9.50;99.90;;;;;;8409213;28;19924;-76
2022/02/13 19:23:19;;;;;;;;;;;9.50;99.90;;;;;;8400902;28;20410;-76
2022/02/13 19:31:42;;;;;;;;;;;9.50;99.90;;;;;;8396320;28;19924;-77
2022/02/13 19:35:44;;;;;;;;;;;9.60;99.90;;;;;;8400350;28;19963;-76
2022/02/13 19:39:46;;;;;;;;;;;9.60;99.90;;;;;;8400428;28;19928;-76
2022/02/13 19:43:49;;;;;;;;;;;9.60;99.90;;;;;;8399578;28;19968;-76
2022/02/13 19:47:51;;;;;;;;;;;9.60;99.90;;;;;;8400428;28;19932;-76
2022/02/13 19:51:53;;;;;;;;;;;9.60;99.90;;;;;;8385819;28;19979;-76
2022/02/13 19:55:54;;;;;;;;;;;9.70;99.90;;;;;;8400082;28;20134;-76
2022/02/13 19:59:56;;;;;;;;;;;9.60;99.90;;;;;;8380839;28;19971;-76
2022/02/13 20:03:58;;;;;;;;;;;9.70;99.90;;;;;;8392704;28;20023;-76
2022/02/13 20:07:59;;;;;;;;;;;9.70;99.90;;;;;;8396065;28;19936;-76
2022/02/13 20:12:01;;;;;;;;;;;9.80;99.90;;;;;;8398344;28;20043;-76
2022/02/13 20:16:05;;;;;;;;;;;9.80;99.90;;;;;;8397081;28;19971;-76
2022/02/13 20:20:07;;;;;;;;;;;9.80;99.90;;;;;;8399755;28;20034;-76
2022/02/13 20:24:09;;;;;;;;;;;9.80;99.90;;;;;;8393825;28;19932;-76
2022/02/13 20:28:10;;;;;;;;;;;9.80;99.90;;;;;;8389549;28;20410;-76
2022/02/13 20:32:12;;;;;;;;;;;9.80;99.90;;;;;;8397944;28;19975;-76
2022/02/13 20:36:22;;;;;;;;;;;9.80;99.90;;;;;;8399252;28;19978;-76
2022/02/13 20:40:24;;;;;;;;;;;9.80;99.90;;;;;;8385907;28;19924;-76
2022/02/13 20:44:26;;;;;;;;;;;9.80;99.90;;;;;;8391357;28;20100;-76
2022/02/13 20:48:28;;;;;;;;;;;9.80;99.90;;;;;;8394823;28;20470;-76
2022/02/13 20:52:29;;;;;;;;;;;9.80;99.90;;;;;;8392288;28;20027;-76
2022/02/13 20:56:32;;;;;;;;;;;9.70;99.90;;;;;;8391832;28;20020;-76
2022/02/13 21:00:34;;;;;;;;;;;9.70;99.90;;;;;;8393640;28;19978;-76
2022/02/13 21:04:36;;;;;;;;;;;9.70;99.90;;;;;;8395707;28;19938;-69
2022/02/13 21:08:37;;;;;;;;;;;9.70;99.90;;;;;;8390050;28;20083;-69
2022/02/13 21:12:39;;;;;;;;;;;9.70;99.90;;;;;;8385446;28;20337;-69
2022/02/13 21:16:40;;;;;;;;;;;9.70;99.90;;;;;;8361681;28;19929;-69
2022/02/13 21:20:44;;;;;;;;;;;9.80;99.90;;;;;;8388520;28;19924;-69
2022/02/13 21:24:45;;;;;;;;;;;9.80;99.90;;;;;;8394140;28;19966;-69
2022/02/13 21:28:47;;;;;;;;;;;9.80;99.90;;;;;;8387510;28;19924;-69
2022/02/13 21:32:50;;;;;;;;;;;9.80;99.90;;;;;;8369478;28;20475;-69
2022/02/13 21:36:51;;;;;;;;;;;9.80;99.90;;;;;;8392467;28;19994;-69
2022/02/13 21:40:53;;;;;;;;;;;9.80;99.90;;;;;;8392892;28;24358;-69
2022/02/13 21:44:55;;;;;;;;;;;9.90;99.90;;;;;;8396854;28;20039;-69
2022/02/13 21:48:56;;;;;;;;;;;9.90;99.90;;;;;;8394017;28;20355;-69
2022/02/13 21:52:58;;;;;;;;;;;9.90;99.90;;;;;;8384992;28;19951;-69
2022/02/13 21:57:00;;;;;;;;;;;9.90;99.90;;;;;;8383134;28;19950;-69
2022/02/13 22:01:02;;;;;;;;;;;10.00;99.90;;;;;;8387429;28;20027;-69
2022/02/13 22:05:04;;;;;;;;;;;10.00;99.90;;;;;;8396545;28;20402;-69
2022/02/13 22:09:06;;;;;;;;;;;10.00;99.90;;;;;;8404930;28;20379;-69
2022/02/13 22:13:07;;;;;;;;;;;10.00;99.90;;;;;;8371621;28;19967;-69
2022/02/13 22:17:09;;;;;;;;;;;10.00;99.90;;;;;;8396425;28;19924;-69
2022/02/13 22:21:11;;;;;;;;;;;10.00;99.90;;;;;;8403358;28;19932;-69
2022/02/13 22:25:13;;;;;;;;;;;9.90;99.90;;;;;;8399123;28;19932;-69
2022/02/13 22:29:14;;;;;;;;;;;9.90;99.90;;;;;;8380515;28;20050;-69
2022/02/13 22:33:16;;;;;;;;;;;9.90;99.90;;;;;;8393383;28;20012;-69
2022/02/13 22:37:17;;;;;;;;;;;10.00;99.90;;;;;;8398946;28;20015;-69
2022/02/13 22:41:20;;;;;;;;;;;10.00;99.90;;;;;;8404037;28;20416;-69
2022/02/13 22:45:21;;;;;;;;;;;9.90;99.90;;;;;;8386350;28;19935;-69
2022/02/13 22:49:23;;;;;;;;;;;10.00;99.90;;;;;;8376859;28;20340;-69
2022/02/13 22:53:26;;;;;;;;;;;10.00;99.90;;;;;;8401168;28;19978;-69
2022/02/13 22:57:28;;;;;;;;;;;10.10;99.90;;;;;;8405849;28;20360;-69
2022/02/13 23:01:30;;;;;;;;;;;10.00;99.90;;;;;;8408438;28;19985;-69
2022/02/13 23:05:32;;;;;;;;;;;10.00;99.90;;;;;;8409984;28;19955;-69
2022/02/13 23:13:56;;;;;;;;;;;10.00;99.90;;;;;;8389208;28;19971;-69
2022/02/13 23:18:01;;;;;;;;;;;10.00;99.90;;;;;;8391268;28;19935;-69
2022/02/13 23:22:02;;;;;;;;;;;10.00;99.90;;;;;;8403948;28;20320;-69
2022/02/13 23:26:04;;;;;;;;;;;10.00;99.90;;;;;;8397695;28;19939;-69
2022/02/13 23:30:06;;;;;;;;;;;10.00;99.90;;;;;;8402689;28;20288;-69
2022/02/13 23:34:07;;;;;;;;;;;10.00;99.90;;;;;;8404963;28;19928;-69
2022/02/13 23:38:10;;;;;;;;;;;10.10;99.90;;;;;;8386218;28;20284;-69
2022/02/13 23:42:11;;;;;;;;;;;10.20;99.90;;;;;;8382328;28;20013;-69
2022/02/13 23:46:13;;;;;;;;;;;10.20;99.90;;;;;;8408634;28;20340;-69
2022/02/13 23:50:14;;;;;;;;;;;10.20;99.90;;;;;;8403605;28;19971;-69
2022/02/13 23:54:16;;;;;;;;;;;10.20;99.90;;;;;;8411196;28;20350;-69